Qandahar, Afghanistan
Current Conditions -  °F | °C
As of 9:55 AM on Thursday 23 Oct 2014 (Local Time) from OAKN Reporting Station
Broken Clouds Broken Clouds  
Wind Chill: 81°   Ceiling: 12000
Heat Index: 81°   Visibility: 6mi
Dew Point: 30°   Wind: 8mph
Humidity: 16%   Direction: 100°E
Pressure: 30.09"   Gusts: NA
Location:  31.61°N, 65.69°E
Report Text: OAKN 230555Z 10007KT 050V180 SCT100 BKN120 BKN200 27/M01 Q1019 RMK A3009 DA5355 BLU
Loading
Personal Weather Stations






























Interactive Weather Map
Tropical Storm Tracking
New forecast layout! Learn more

10-Day Weather Forecast

Advertisements
Track Severe Weather on mobile